sensor_id;sensor_type;location;lat;lon;timestamp;temperature;humidity
39655;DHT22;25336;59.944;11.010;2022-09-09T00:00:39;14.90;54.80
39655;DHT22;25336;59.944;11.010;2022-09-09T00:03:47;14.90;54.80
39655;DHT22;25336;59.944;11.010;2022-09-09T00:06:34;14.90;54.90
39655;DHT22;25336;59.944;11.010;2022-09-09T00:14:31;14.90;54.90
39655;DHT22;25336;59.944;11.010;2022-09-09T00:17:04;15.00;55.00
39655;DHT22;25336;59.944;11.010;2022-09-09T00:19:43;14.90;54.90
39655;DHT22;25336;59.944;11.010;2022-09-09T00:22:17;14.90;55.00
39655;DHT22;25336;59.944;11.010;2022-09-09T00:25:10;14.90;55.00
39655;DHT22;25336;59.944;11.010;2022-09-09T00:30:26;15.40;55.30
39655;DHT22;25336;59.944;11.010;2022-09-09T00:33:00;14.90;55.10
39655;DHT22;25336;59.944;11.010;2022-09-09T00:35:35;14.80;55.10
39655;DHT22;25336;59.944;11.010;2022-09-09T00:40:49;14.80;55.20
39655;DHT22;25336;59.944;11.010;2022-09-09T00:43:26;14.80;55.20
39655;DHT22;25336;59.944;11.010;2022-09-09T00:51:46;14.80;55.40
39655;DHT22;25336;59.944;11.010;2022-09-09T00:54:20;14.80;55.50
39655;DHT22;25336;59.944;11.010;2022-09-09T01:02:28;14.70;55.60
39655;DHT22;25336;59.944;11.010;2022-09-09T01:05:00;15.10;55.70
39655;DHT22;25336;59.944;11.010;2022-09-09T01:07:27;15.00;55.70
39655;DHT22;25336;59.944;11.010;2022-09-09T01:09:57;14.70;55.60
39655;DHT22;25336;59.944;11.010;2022-09-09T01:12:38;14.60;55.80
39655;DHT22;25336;59.944;11.010;2022-09-09T01:15:08;14.60;55.80
39655;DHT22;25336;59.944;11.010;2022-09-09T01:18:02;14.60;55.90
39655;DHT22;25336;59.944;11.010;2022-09-09T01:20:31;14.60;56.30
39655;DHT22;25336;59.944;11.010;2022-09-09T01:28:40;14.50;56.40
39655;DHT22;25336;59.944;11.010;2022-09-09T01:31:09;14.50;56.20
39655;DHT22;25336;59.944;11.010;2022-09-09T01:33:36;14.50;56.40
39655;DHT22;25336;59.944;11.010;2022-09-09T01:38:32;14.40;56.50
39655;DHT22;25336;59.944;11.010;2022-09-09T01:40:59;14.40;56.60
39655;DHT22;25336;59.944;11.010;2022-09-09T01:43:26;14.40;56.60
39655;DHT22;25336;59.944;11.010;2022-09-09T01:45:54;14.40;56.70
39655;DHT22;25336;59.944;11.010;2022-09-09T01:48:22;14.40;57.40
39655;DHT22;25336;59.944;11.010;2022-09-09T01:50:49;14.40;56.80
39655;DHT22;25336;59.944;11.010;2022-09-09T01:53:17;14.40;56.90
39655;DHT22;25336;59.944;11.010;2022-09-09T02:00:49;14.40;56.80
39655;DHT22;25336;59.944;11.010;2022-09-09T02:03:31;14.30;57.00
39655;DHT22;25336;59.944;11.010;2022-09-09T02:08:49;14.30;57.10
39655;DHT22;25336;59.944;11.010;2022-09-09T02:11:17;14.30;57.40
39655;DHT22;25336;59.944;11.010;2022-09-09T02:13:46;14.30;57.20
39655;DHT22;25336;59.944;11.010;2022-09-09T02:21:17;14.20;57.40
39655;DHT22;25336;59.944;11.010;2022-09-09T02:23:44;14.20;57.40
39655;DHT22;25336;59.944;11.010;2022-09-09T02:26:13;14.20;57.50
39655;DHT22;25336;59.944;11.010;2022-09-09T02:28:46;14.20;57.50
39655;DHT22;25336;59.944;11.010;2022-09-09T02:31:13;14.20;57.50
39655;DHT22;25336;59.944;11.010;2022-09-09T02:33:44;14.20;57.60
39655;DHT22;25336;59.944;11.010;2022-09-09T02:36:12;14.20;57.70
39655;DHT22;25336;59.944;11.010;2022-09-09T02:38:46;14.20;57.70
39655;DHT22;25336;59.944;11.010;2022-09-09T02:41:18;14.20;57.70
39655;DHT22;25336;59.944;11.010;2022-09-09T02:43:45;14.20;57.70
39655;DHT22;25336;59.944;11.010;2022-09-09T02:51:58;14.60;58.60
39655;DHT22;25336;59.944;11.010;2022-09-09T02:54:31;14.10;58.10
39655;DHT22;25336;59.944;11.010;2022-09-09T02:57:27;14.10;58.10
39655;DHT22;25336;59.944;11.010;2022-09-09T02:59:53;14.10;58.50
39655;DHT22;25336;59.944;11.010;2022-09-09T03:02:22;14.00;58.00
39655;DHT22;25336;59.944;11.010;2022-09-09T03:04:48;14.00;58.20
39655;DHT22;25336;59.944;11.010;2022-09-09T03:07:17;13.90;58.20
39655;DHT22;25336;59.944;11.010;2022-09-09T03:09:43;13.90;58.30
39655;DHT22;25336;59.944;11.010;2022-09-09T03:12:10;15.00;58.90
39655;DHT22;25336;59.944;11.010;2022-09-09T03:14:37;13.90;58.60
39655;DHT22;25336;59.944;11.010;2022-09-09T03:17:04;13.80;58.60
39655;DHT22;25336;59.944;11.010;2022-09-09T03:19:30;13.80;58.90
39655;DHT22;25336;59.944;11.010;2022-09-09T03:21:57;13.80;58.80
39655;DHT22;25336;59.944;11.010;2022-09-09T03:24:24;13.70;59.00
39655;DHT22;25336;59.944;11.010;2022-09-09T03:26:50;13.70;59.00
39655;DHT22;25336;59.944;11.010;2022-09-09T03:29:16;13.70;59.30
39655;DHT22;25336;59.944;11.010;2022-09-09T03:31:42;13.60;59.20
39655;DHT22;25336;59.944;11.010;2022-09-09T03:34:08;13.60;59.30
39655;DHT22;25336;59.944;11.010;2022-09-09T03:36:33;14.30;59.80
39655;DHT22;25336;59.944;11.010;2022-09-09T03:38:59;13.50;59.30
39655;DHT22;25336;59.944;11.010;2022-09-09T03:41:25;13.60;59.40
39655;DHT22;25336;59.944;11.010;2022-09-09T03:43:51;13.60;59.60
39655;DHT22;25336;59.944;11.010;2022-09-09T03:46:22;13.60;59.60
39655;DHT22;25336;59.944;11.010;2022-09-09T03:48:49;13.50;59.70
39655;DHT22;25336;59.944;11.010;2022-09-09T03:51:15;13.50;59.60
39655;DHT22;25336;59.944;11.010;2022-09-09T03:53:41;13.50;59.60
39655;DHT22;25336;59.944;11.010;2022-09-09T03:56:07;13.50;59.80
39655;DHT22;25336;59.944;11.010;2022-09-09T03:58:37;13.90;59.90
39655;DHT22;25336;59.944;11.010;2022-09-09T04:03:30;13.50;59.70
39655;DHT22;25336;59.944;11.010;2022-09-09T04:05:58;13.50;59.70
39655;DHT22;25336;59.944;11.010;2022-09-09T04:08:24;13.50;59.90
39655;DHT22;25336;59.944;11.010;2022-09-09T04:10:53;13.50;59.90
39655;DHT22;25336;59.944;11.010;2022-09-09T04:13:19;13.50;60.00
39655;DHT22;25336;59.944;11.010;2022-09-09T04:15:54;13.50;59.90
39655;DHT22;25336;59.944;11.010;2022-09-09T04:18:21;13.50;60.10
39655;DHT22;25336;59.944;11.010;2022-09-09T04:20:47;13.50;59.90
39655;DHT22;25336;59.944;11.010;2022-09-09T04:23:14;13.50;60.00
39655;DHT22;25336;59.944;11.010;2022-09-09T04:25:51;13.40;60.00
39655;DHT22;25336;59.944;11.010;2022-09-09T04:28:18;13.40;61.00
39655;DHT22;25336;59.944;11.010;2022-09-09T04:30:44;13.30;59.90
39655;DHT22;25336;59.944;11.010;2022-09-09T04:33:10;13.30;60.00
39655;DHT22;25336;59.944;11.010;2022-09-09T04:35:36;13.50;60.20
39655;DHT22;25336;59.944;11.010;2022-09-09T04:38:03;13.20;60.10
39655;DHT22;25336;59.944;11.010;2022-09-09T04:40:30;13.20;60.20
39655;DHT22;25336;59.944;11.010;2022-09-09T04:43:00;13.20;60.50
39655;DHT22;25336;59.944;11.010;2022-09-09T04:45:26;13.10;60.70
39655;DHT22;25336;59.944;11.010;2022-09-09T04:47:53;13.10;60.70
39655;DHT22;25336;59.944;11.010;2022-09-09T04:50:19;13.10;60.80
39655;DHT22;25336;59.944;11.010;2022-09-09T04:52:45;13.10;60.90
39655;DHT22;25336;59.944;11.010;2022-09-09T04:55:10;13.10;61.10
39655;DHT22;25336;59.944;11.010;2022-09-09T04:57:38;13.00;61.10
39655;DHT22;25336;59.944;11.010;2022-09-09T05:00:04;14.50;62.10
39655;DHT22;25336;59.944;11.010;2022-09-09T05:02:30;13.10;61.40
39655;DHT22;25336;59.944;11.010;2022-09-09T05:04:57;13.00;61.40
39655;DHT22;25336;59.944;11.010;2022-09-09T05:07:23;12.90;61.30
39655;DHT22;25336;59.944;11.010;2022-09-09T05:09:49;12.90;61.50
39655;DHT22;25336;59.944;11.010;2022-09-09T05:12:16;12.90;61.60
39655;DHT22;25336;59.944;11.010;2022-09-09T05:14:42;12.90;61.90
39655;DHT22;25336;59.944;11.010;2022-09-09T05:17:09;12.90;61.90
39655;DHT22;25336;59.944;11.010;2022-09-09T05:19:34;12.90;61.90
39655;DHT22;25336;59.944;11.010;2022-09-09T05:22:00;12.80;62.20
39655;DHT22;25336;59.944;11.010;2022-09-09T05:24:27;12.90;62.20
39655;DHT22;25336;59.944;11.010;2022-09-09T05:26:52;13.60;62.60
39655;DHT22;25336;59.944;11.010;2022-09-09T05:29:18;12.80;62.20
39655;DHT22;25336;59.944;11.010;2022-09-09T05:31:47;12.80;62.20
39655;DHT22;25336;59.944;11.010;2022-09-09T05:34:12;12.80;62.30
39655;DHT22;25336;59.944;11.010;2022-09-09T05:36:38;12.70;62.50
39655;DHT22;25336;59.944;11.010;2022-09-09T05:39:04;12.80;62.60
39655;DHT22;25336;59.944;11.010;2022-09-09T05:41:29;13.60;63.30
39655;DHT22;25336;59.944;11.010;2022-09-09T05:43:56;13.10;63.20
39655;DHT22;25336;59.944;11.010;2022-09-09T05:46:23;12.70;63.10
39655;DHT22;25336;59.944;11.010;2022-09-09T05:48:50;12.80;63.10
39655;DHT22;25336;59.944;11.010;2022-09-09T05:51:19;12.70;63.20
39655;DHT22;25336;59.944;11.010;2022-09-09T05:53:47;12.80;63.30
39655;DHT22;25336;59.944;11.010;2022-09-09T05:56:16;12.80;63.40
39655;DHT22;25336;59.944;11.010;2022-09-09T05:58:45;14.60;64.70
39655;DHT22;25336;59.944;11.010;2022-09-09T06:01:14;12.80;63.40
39655;DHT22;25336;59.944;11.010;2022-09-09T06:03:42;12.80;63.40
39655;DHT22;25336;59.944;11.010;2022-09-09T06:06:14;12.80;63.30
39655;DHT22;25336;59.944;11.010;2022-09-09T06:08:40;12.80;63.20
39655;DHT22;25336;59.944;11.010;2022-09-09T06:11:10;12.80;63.30
39655;DHT22;25336;59.944;11.010;2022-09-09T06:13:36;13.20;63.00
39655;DHT22;25336;59.944;11.010;2022-09-09T06:16:09;12.80;63.10
39655;DHT22;25336;59.944;11.010;2022-09-09T06:18:40;12.90;63.40
39655;DHT22;25336;59.944;11.010;2022-09-09T06:21:09;12.90;63.30
39655;DHT22;25336;59.944;11.010;2022-09-09T06:23:35;12.90;63.40
39655;DHT22;25336;59.944;11.010;2022-09-09T06:28:34;13.00;63.50
39655;DHT22;25336;59.944;11.010;2022-09-09T06:31:02;13.00;63.40
39655;DHT22;25336;59.944;11.010;2022-09-09T06:33:34;13.10;63.30
39655;DHT22;25336;59.944;11.010;2022-09-09T06:36:01;13.10;63.20
39655;DHT22;25336;59.944;11.010;2022-09-09T06:38:27;13.10;63.10
39655;DHT22;25336;59.944;11.010;2022-09-09T06:40:57;13.20;63.20
39655;DHT22;25336;59.944;11.010;2022-09-09T06:43:23;13.20;63.20
39655;DHT22;25336;59.944;11.010;2022-09-09T06:46:00;13.20;63.10
39655;DHT22;25336;59.944;11.010;2022-09-09T06:48:27;13.30;63.20
39655;DHT22;25336;59.944;11.010;2022-09-09T06:51:04;13.30;62.90
39655;DHT22;25336;59.944;11.010;2022-09-09T06:53:31;13.80;63.40
39655;DHT22;25336;59.944;11.010;2022-09-09T06:55:59;14.60;63.60
39655;DHT22;25336;59.944;11.010;2022-09-09T06:58:26;13.40;62.80
39655;DHT22;25336;59.944;11.010;2022-09-09T07:00:52;13.40;62.60
39655;DHT22;25336;59.944;11.010;2022-09-09T07:03:18;13.50;62.60
39655;DHT22;25336;59.944;11.010;2022-09-09T07:05:53;13.50;62.60
39655;DHT22;25336;59.944;11.010;2022-09-09T07:08:18;13.50;62.50
39655;DHT22;25336;59.944;11.010;2022-09-09T07:10:44;13.60;62.40
39655;DHT22;25336;59.944;11.010;2022-09-09T07:13:10;13.60;62.30
39655;DHT22;25336;59.944;11.010;2022-09-09T07:15:35;13.60;62.00
39655;DHT22;25336;59.944;11.010;2022-09-09T07:18:01;13.70;62.00
39655;DHT22;25336;59.944;11.010;2022-09-09T07:20:27;13.80;61.80
39655;DHT22;25336;59.944;11.010;2022-09-09T07:22:54;13.80;61.60
39655;DHT22;25336;59.944;11.010;2022-09-09T07:25:20;13.90;61.70
39655;DHT22;25336;59.944;11.010;2022-09-09T07:27:47;13.90;61.40
39655;DHT22;25336;59.944;11.010;2022-09-09T07:30:13;14.00;61.10
39655;DHT22;25336;59.944;11.010;2022-09-09T07:32:39;14.10;60.80
39655;DHT22;25336;59.944;11.010;2022-09-09T07:35:05;13.20;60.00
39655;DHT22;25336;59.944;11.010;2022-09-09T07:37:31;14.20;60.60
39655;DHT22;25336;59.944;11.010;2022-09-09T07:39:57;14.20;60.50
39655;DHT22;25336;59.944;11.010;2022-09-09T07:42:22;14.30;60.30
39655;DHT22;25336;59.944;11.010;2022-09-09T07:44:48;14.30;59.90
39655;DHT22;25336;59.944;11.010;2022-09-09T07:47:13;14.40;59.70
39655;DHT22;25336;59.944;11.010;2022-09-09T07:49:39;14.40;59.50
39655;DHT22;25336;59.944;11.010;2022-09-09T07:52:06;14.40;59.40
39655;DHT22;25336;59.944;11.010;2022-09-09T07:54:31;14.50;59.30
39655;DHT22;25336;59.944;11.010;2022-09-09T07:56:58;14.90;59.30
39655;DHT22;25336;59.944;11.010;2022-09-09T07:59:23;14.50;59.10
39655;DHT22;25336;59.944;11.010;2022-09-09T08:01:51;14.50;58.90
39655;DHT22;25336;59.944;11.010;2022-09-09T08:04:20;14.50;58.90
39655;DHT22;25336;59.944;11.010;2022-09-09T08:06:58;14.50;58.90
39655;DHT22;25336;59.944;11.010;2022-09-09T08:09:24;14.50;58.90
39655;DHT22;25336;59.944;11.010;2022-09-09T08:11:52;14.50;58.90
39655;DHT22;25336;59.944;11.010;2022-09-09T08:14:18;14.50;58.70
39655;DHT22;25336;59.944;11.010;2022-09-09T08:16:47;14.50;58.80
39655;DHT22;25336;59.944;11.010;2022-09-09T08:19:13;14.60;58.70
39655;DHT22;25336;59.944;11.010;2022-09-09T08:21:41;14.60;58.60
39655;DHT22;25336;59.944;11.010;2022-09-09T08:24:08;14.60;58.60
39655;DHT22;25336;59.944;11.010;2022-09-09T08:26:38;14.60;58.60
39655;DHT22;25336;59.944;11.010;2022-09-09T08:29:06;14.60;58.60
39655;DHT22;25336;59.944;11.010;2022-09-09T08:31:37;14.70;58.60
39655;DHT22;25336;59.944;11.010;2022-09-09T08:34:04;14.70;58.50
39655;DHT22;25336;59.944;11.010;2022-09-09T08:36:34;14.80;58.60
39655;DHT22;25336;59.944;11.010;2022-09-09T08:39:00;14.80;58.30
39655;DHT22;25336;59.944;11.010;2022-09-09T08:57:56;15.30;57.80
39655;DHT22;25336;59.944;11.010;2022-09-09T09:00:28;15.30;57.60
39655;DHT22;25336;59.944;11.010;2022-09-09T09:03:09;15.40;57.50
39655;DHT22;25336;59.944;11.010;2022-09-09T09:05:57;15.50;56.80
39655;DHT22;25336;59.944;11.010;2022-09-09T09:08:30;15.50;56.80
39655;DHT22;25336;59.944;11.010;2022-09-09T09:10:59;15.60;57.00
39655;DHT22;25336;59.944;11.010;2022-09-09T09:18:54;15.80;56.40
39655;DHT22;25336;59.944;11.010;2022-09-09T09:24:10;15.90;55.60
39655;DHT22;25336;59.944;11.010;2022-09-09T09:26:40;16.00;55.80
39655;DHT22;25336;59.944;11.010;2022-09-09T09:29:14;16.00;55.90
39655;DHT22;25336;59.944;11.010;2022-09-09T09:31:47;16.10;55.50
39655;DHT22;25336;59.944;11.010;2022-09-09T09:34:14;16.10;55.10
39655;DHT22;25336;59.944;11.010;2022-09-09T09:36:45;16.10;55.30
39655;DHT22;25336;59.944;11.010;2022-09-09T09:39:24;16.10;54.90
39655;DHT22;25336;59.944;11.010;2022-09-09T09:41:51;16.20;54.60
39655;DHT22;25336;59.944;11.010;2022-09-09T09:44:30;16.20;54.90
39655;DHT22;25336;59.944;11.010;2022-09-09T09:47:13;16.30;54.80
39655;DHT22;25336;59.944;11.010;2022-09-09T09:49:51;16.30;54.50
39655;DHT22;25336;59.944;11.010;2022-09-09T09:52:23;16.30;53.80
39655;DHT22;25336;59.944;11.010;2022-09-09T09:54:50;16.30;54.00
39655;DHT22;25336;59.944;11.010;2022-09-09T09:57:17;16.30;54.20
39655;DHT22;25336;59.944;11.010;2022-09-09T09:59:43;16.30;54.10
39655;DHT22;25336;59.944;11.010;2022-09-09T10:02:17;16.30;53.90
39655;DHT22;25336;59.944;11.010;2022-09-09T10:04:43;16.30;53.90
39655;DHT22;25336;59.944;11.010;2022-09-09T10:07:22;16.30;54.00
39655;DHT22;25336;59.944;11.010;2022-09-09T10:09:55;16.30;54.10
39655;DHT22;25336;59.944;11.010;2022-09-09T10:18:31;16.40;54.40
39655;DHT22;25336;59.944;11.010;2022-09-09T10:21:25;16.50;54.10
39655;DHT22;25336;59.944;11.010;2022-09-09T10:42:58;16.90;53.20
39655;DHT22;25336;59.944;11.010;2022-09-09T10:51:17;17.00;52.90
39655;DHT22;25336;59.944;11.010;2022-09-09T10:54:18;17.00;53.00
39655;DHT22;25336;59.944;11.010;2022-09-09T10:57:04;17.00;52.40
39655;DHT22;25336;59.944;11.010;2022-09-09T10:59:39;17.00;52.50
39655;DHT22;25336;59.944;11.010;2022-09-09T11:02:16;17.00;52.60
39655;DHT22;25336;59.944;11.010;2022-09-09T11:04:55;17.00;52.30
39655;DHT22;25336;59.944;11.010;2022-09-09T11:07:49;17.00;52.20
39655;DHT22;25336;59.944;11.010;2022-09-09T11:13:04;16.90;52.40
39655;DHT22;25336;59.944;11.010;2022-09-09T11:15:44;15.80;51.90
39655;DHT22;25336;59.944;11.010;2022-09-09T11:18:20;16.90;52.50
39655;DHT22;25336;59.944;11.010;2022-09-09T11:20:52;16.90;52.30
39655;DHT22;25336;59.944;11.010;2022-09-09T11:23:28;16.80;52.30
39655;DHT22;25336;59.944;11.010;2022-09-09T11:26:00;16.80;52.60
39655;DHT22;25336;59.944;11.010;2022-09-09T11:32:05;16.80;52.50
39655;DHT22;25336;59.944;11.010;2022-09-09T11:34:54;16.80;52.20
39655;DHT22;25336;59.944;11.010;2022-09-09T11:42:45;16.70;52.50
39655;DHT22;25336;59.944;11.010;2022-09-09T11:45:25;16.70;52.50
39655;DHT22;25336;59.944;11.010;2022-09-09T11:47:59;16.60;52.50
39655;DHT22;25336;59.944;11.010;2022-09-09T11:52:51;16.60;52.60
39655;DHT22;25336;59.944;11.010;2022-09-09T11:55:28;16.60;52.70
39655;DHT22;25336;59.944;11.010;2022-09-09T11:58:03;16.60;52.70
39655;DHT22;25336;59.944;11.010;2022-09-09T12:00:41;16.60;52.80
39655;DHT22;25336;59.944;11.010;2022-09-09T12:03:46;16.60;52.90
39655;DHT22;25336;59.944;11.010;2022-09-09T12:06:24;16.60;53.40
39655;DHT22;25336;59.944;11.010;2022-09-09T12:08:54;16.70;53.00
39655;DHT22;25336;59.944;11.010;2022-09-09T12:11:29;16.70;53.00
39655;DHT22;25336;59.944;11.010;2022-09-09T12:13:58;16.70;53.00
39655;DHT22;25336;59.944;11.010;2022-09-09T12:16:36;16.80;52.90
39655;DHT22;25336;59.944;11.010;2022-09-09T12:21:48;16.90;52.00
39655;DHT22;25336;59.944;11.010;2022-09-09T12:24:43;17.00;52.10
39655;DHT22;25336;59.944;11.010;2022-09-09T12:29:58;17.10;52.20
39655;DHT22;25336;59.944;11.010;2022-09-09T12:32:26;17.10;52.60
39655;DHT22;25336;59.944;11.010;2022-09-09T12:35:03;17.20;52.60
39655;DHT22;25336;59.944;11.010;2022-09-09T12:37:38;17.30;51.90
39655;DHT22;25336;59.944;11.010;2022-09-09T12:40:28;17.40;51.80
39655;DHT22;25336;59.944;11.010;2022-09-09T12:42:54;17.50;51.50
39655;DHT22;25336;59.944;11.010;2022-09-09T12:45:25;17.60;51.70
39655;DHT22;25336;59.944;11.010;2022-09-09T12:48:08;17.70;51.50
39655;DHT22;25336;59.944;11.010;2022-09-09T12:50:35;17.80;51.30
39655;DHT22;25336;59.944;11.010;2022-09-09T12:53:12;18.00;50.90
39655;DHT22;25336;59.944;11.010;2022-09-09T12:55:51;18.10;51.10
39655;DHT22;25336;59.944;11.010;2022-09-09T12:58:18;18.20;50.40
39655;DHT22;25336;59.944;11.010;2022-09-09T13:00:52;18.30;50.10
39655;DHT22;25336;59.944;11.010;2022-09-09T13:03:20;18.40;48.80
39655;DHT22;25336;59.944;11.010;2022-09-09T13:05:49;18.40;48.90
39655;DHT22;25336;59.944;11.010;2022-09-09T13:08:16;18.40;48.90
39655;DHT22;25336;59.944;11.010;2022-09-09T13:10:54;18.50;48.70
39655;DHT22;25336;59.944;11.010;2022-09-09T13:13:27;18.50;49.00
39655;DHT22;25336;59.944;11.010;2022-09-09T13:16:00;18.60;48.20
39655;DHT22;25336;59.944;11.010;2022-09-09T13:18:36;18.60;48.20
39655;DHT22;25336;59.944;11.010;2022-09-09T13:21:04;18.60;48.30
39655;DHT22;25336;59.944;11.010;2022-09-09T13:23:35;18.60;48.40
39655;DHT22;25336;59.944;11.010;2022-09-09T13:28:30;18.60;48.10
39655;DHT22;25336;59.944;11.010;2022-09-09T13:31:04;18.60;48.30
39655;DHT22;25336;59.944;11.010;2022-09-09T13:33:35;18.70;48.20
39655;DHT22;25336;59.944;11.010;2022-09-09T13:36:07;18.70;48.50
39655;DHT22;25336;59.944;11.010;2022-09-09T13:41:20;18.80;47.90
39655;DHT22;25336;59.944;11.010;2022-09-09T13:43:47;18.90;48.30
39655;DHT22;25336;59.944;11.010;2022-09-09T13:46:40;19.00;48.20
39655;DHT22;25336;59.944;11.010;2022-09-09T13:51:42;19.20;46.20
39655;DHT22;25336;59.944;11.010;2022-09-09T13:54:13;19.20;45.90
39655;DHT22;25336;59.944;11.010;2022-09-09T13:56:40;19.20;45.60
39655;DHT22;25336;59.944;11.010;2022-09-09T13:59:10;19.10;45.90
39655;DHT22;25336;59.944;11.010;2022-09-09T14:01:36;19.00;45.90
39655;DHT22;25336;59.944;11.010;2022-09-09T14:04:03;19.00;45.80
39655;DHT22;25336;59.944;11.010;2022-09-09T14:06:29;18.90;45.80
39655;DHT22;25336;59.944;11.010;2022-09-09T14:08:54;18.90;45.80
39655;DHT22;25336;59.944;11.010;2022-09-09T14:11:20;18.90;46.20
39655;DHT22;25336;59.944;11.010;2022-09-09T14:13:50;18.90;46.20
39655;DHT22;25336;59.944;11.010;2022-09-09T14:16:16;18.90;46.40
39655;DHT22;25336;59.944;11.010;2022-09-09T14:18:43;18.90;46.50
39655;DHT22;25336;59.944;11.010;2022-09-09T14:21:09;19.00;46.60
39655;DHT22;25336;59.944;11.010;2022-09-09T14:23:35;19.00;46.90
39655;DHT22;25336;59.944;11.010;2022-09-09T14:26:01;19.10;46.90
39655;DHT22;25336;59.944;11.010;2022-09-09T14:28:27;19.10;46.00
39655;DHT22;25336;59.944;11.010;2022-09-09T14:30:53;19.20;46.10
39655;DHT22;25336;59.944;11.010;2022-09-09T14:33:19;19.20;45.80
39655;DHT22;25336;59.944;11.010;2022-09-09T14:35:45;19.20;45.80
39655;DHT22;25336;59.944;11.010;2022-09-09T14:38:10;19.20;45.50
39655;DHT22;25336;59.944;11.010;2022-09-09T14:40:37;19.20;45.50
39655;DHT22;25336;59.944;11.010;2022-09-09T14:43:03;19.20;45.50
39655;DHT22;25336;59.944;11.010;2022-09-09T14:45:30;19.20;45.40
39655;DHT22;25336;59.944;11.010;2022-09-09T14:47:55;19.20;45.50
39655;DHT22;25336;59.944;11.010;2022-09-09T14:50:22;19.10;46.00
39655;DHT22;25336;59.944;11.010;2022-09-09T14:52:48;19.10;45.90
39655;DHT22;25336;59.944;11.010;2022-09-09T14:55:14;19.10;46.00
39655;DHT22;25336;59.944;11.010;2022-09-09T14:57:40;19.10;45.90
39655;DHT22;25336;59.944;11.010;2022-09-09T15:00:07;20.60;46.70
39655;DHT22;25336;59.944;11.010;2022-09-09T15:02:34;19.00;46.30
39655;DHT22;25336;59.944;11.010;2022-09-09T15:05:00;19.00;45.80
39655;DHT22;25336;59.944;11.010;2022-09-09T15:07:26;18.90;46.00
39655;DHT22;25336;59.944;11.010;2022-09-09T15:09:53;18.80;46.30
39655;DHT22;25336;59.944;11.010;2022-09-09T15:12:20;18.80;46.50
39655;DHT22;25336;59.944;11.010;2022-09-09T15:14:46;18.80;46.70
39655;DHT22;25336;59.944;11.010;2022-09-09T15:17:12;18.80;46.70
39655;DHT22;25336;59.944;11.010;2022-09-09T15:19:38;18.80;46.80
39655;DHT22;25336;59.944;11.010;2022-09-09T15:22:04;18.80;46.70
39655;DHT22;25336;59.944;11.010;2022-09-09T15:24:31;18.80;46.60
39655;DHT22;25336;59.944;11.010;2022-09-09T15:26:57;18.90;46.50
39655;DHT22;25336;59.944;11.010;2022-09-09T15:29:23;18.90;46.10
39655;DHT22;25336;59.944;11.010;2022-09-09T15:31:49;18.80;46.00
39655;DHT22;25336;59.944;11.010;2022-09-09T15:34:14;18.80;45.90
39655;DHT22;25336;59.944;11.010;2022-09-09T15:36:44;18.80;46.00
39655;DHT22;25336;59.944;11.010;2022-09-09T15:39:16;18.70;46.00
39655;DHT22;25336;59.944;11.010;2022-09-09T15:41:44;18.70;46.00
39655;DHT22;25336;59.944;11.010;2022-09-09T15:44:10;18.70;46.20
39655;DHT22;25336;59.944;11.010;2022-09-09T15:46:45;18.60;46.20
39655;DHT22;25336;59.944;11.010;2022-09-09T15:49:14;18.60;46.30
39655;DHT22;25336;59.944;11.010;2022-09-09T15:51:45;18.60;46.20
39655;DHT22;25336;59.944;11.010;2022-09-09T15:54:13;20.00;47.00
39655;DHT22;25336;59.944;11.010;2022-09-09T15:56:42;18.60;46.40
39655;DHT22;25336;59.944;11.010;2022-09-09T15:59:07;18.50;46.40
39655;DHT22;25336;59.944;11.010;2022-09-09T16:01:33;18.50;46.50
39655;DHT22;25336;59.944;11.010;2022-09-09T16:03:59;18.50;46.50
39655;DHT22;25336;59.944;11.010;2022-09-09T16:06:26;18.40;46.40
39655;DHT22;25336;59.944;11.010;2022-09-09T16:08:54;18.40;46.60
39655;DHT22;25336;59.944;11.010;2022-09-09T16:11:33;18.40;46.60
39655;DHT22;25336;59.944;11.010;2022-09-09T16:14:00;18.40;46.60
39655;DHT22;25336;59.944;11.010;2022-09-09T16:16:28;18.30;46.80
39655;DHT22;25336;59.944;11.010;2022-09-09T16:18:58;18.30;46.80
39655;DHT22;25336;59.944;11.010;2022-09-09T16:21:36;18.30;46.90
39655;DHT22;25336;59.944;11.010;2022-09-09T16:24:04;18.30;46.90
39655;DHT22;25336;59.944;11.010;2022-09-09T16:26:36;18.30;47.30
39655;DHT22;25336;59.944;11.010;2022-09-09T16:29:03;18.30;47.00
39655;DHT22;25336;59.944;11.010;2022-09-09T16:31:30;18.30;47.20
39655;DHT22;25336;59.944;11.010;2022-09-09T16:33:57;18.30;46.90
39655;DHT22;25336;59.944;11.010;2022-09-09T16:36:28;18.30;46.70
39655;DHT22;25336;59.944;11.010;2022-09-09T16:38:58;18.30;46.50
39655;DHT22;25336;59.944;11.010;2022-09-09T16:41:25;18.40;46.70
39655;DHT22;25336;59.944;11.010;2022-09-09T16:43:55;18.30;46.70
39655;DHT22;25336;59.944;11.010;2022-09-09T16:46:21;18.30;46.60
39655;DHT22;25336;59.944;11.010;2022-09-09T16:48:48;18.30;46.60
39655;DHT22;25336;59.944;11.010;2022-09-09T16:51:24;18.30;46.60
39655;DHT22;25336;59.944;11.010;2022-09-09T16:53:51;18.30;46.40
39655;DHT22;25336;59.944;11.010;2022-09-09T16:56:19;18.30;46.60
39655;DHT22;25336;59.944;11.010;2022-09-09T16:58:50;18.20;46.60
39655;DHT22;25336;59.944;11.010;2022-09-09T17:01:16;18.20;46.70
39655;DHT22;25336;59.944;11.010;2022-09-09T17:03:42;18.20;46.80
39655;DHT22;25336;59.944;11.010;2022-09-09T17:06:12;18.20;46.80
39655;DHT22;25336;59.944;11.010;2022-09-09T17:08:39;18.20;46.60
39655;DHT22;25336;59.944;11.010;2022-09-09T17:11:17;18.20;46.80
39655;DHT22;25336;59.944;11.010;2022-09-09T17:13:44;18.10;46.70
39655;DHT22;25336;59.944;11.010;2022-09-09T17:16:12;18.10;46.90
39655;DHT22;25336;59.944;11.010;2022-09-09T17:18:38;18.00;46.80
39655;DHT22;25336;59.944;11.010;2022-09-09T17:21:09;18.00;47.00
39655;DHT22;25336;59.944;11.010;2022-09-09T17:23:37;17.90;47.00
39655;DHT22;25336;59.944;11.010;2022-09-09T17:26:05;17.90;47.30
39655;DHT22;25336;59.944;11.010;2022-09-09T17:28:31;17.80;47.50
39655;DHT22;25336;59.944;11.010;2022-09-09T17:30:58;17.80;47.60
39655;DHT22;25336;59.944;11.010;2022-09-09T17:33:28;17.70;47.90
39655;DHT22;25336;59.944;11.010;2022-09-09T17:36:01;17.60;47.90
39655;DHT22;25336;59.944;11.010;2022-09-09T17:38:27;17.60;48.10
39655;DHT22;25336;59.944;11.010;2022-09-09T17:41:12;17.50;48.30
39655;DHT22;25336;59.944;11.010;2022-09-09T17:43:39;17.50;48.60
39655;DHT22;25336;59.944;11.010;2022-09-09T17:46:10;17.40;48.50
39655;DHT22;25336;59.944;11.010;2022-09-09T17:48:37;17.30;48.80